Time;durP1;ratioP1;P1;durP2;ratioP2;P2;SDS_P1;SDS_P2;PMS_P1;PMS_P2;Temp;Humidity;BMP_temperature;BMP_pressure;BME280_temperature;BME280_humidity;BME280_pressure;Samples;Min_cycle;Max_cycle;Signal;HPM_P1;HPM_P2
2022/03/17 00:00:40;;;;;;;16.40;13.25;;;;;;;6.53;84.25;101314.72;4990122;28;20104;-65
2022/03/17 00:03:43;;;;;;;18.48;14.98;;;;;;;6.39;84.92;101315.94;4990525;28;20145;-66
2022/03/17 00:06:47;;;;;;;;;;;;;;;6.46;84.52;101314.91;4990064;28;20045;-64
2022/03/17 00:09:50;;;;;;;16.00;11.90;;;;;;;6.38;84.95;101319.41;4979230;28;19986;-65
2022/03/17 00:12:54;;;;;;;;;;;;;;;6.27;85.23;101315.31;4990533;28;20044;-64
2022/03/17 00:15:57;;;;;;;13.37;11.43;;;;;;;6.36;85.33;101306.47;4972739;28;19924;-64
2022/03/17 00:19:05;;;;;;;15.75;12.45;;;;;;;6.32;85.50;101303.94;4989717;28;20057;-64
2022/03/17 00:22:08;;;;;;;14.07;12.27;;;;;;;6.43;84.84;101313.22;4974774;28;20121;-65
2022/03/17 00:25:12;;;;;;;12.90;11.50;;;;;;;6.47;84.69;101299.25;4970952;28;20117;-64
2022/03/17 00:28:15;;;;;;;;;;;;;;;6.36;84.49;101303.00;4971239;28;20053;-65
2022/03/17 00:31:18;;;;;;;11.93;10.70;;;;;;;6.41;84.54;101308.94;4970630;28;20387;-65
2022/03/17 00:34:21;;;;;;;13.57;11.60;;;;;;;6.45;84.58;101302.81;4970426;28;20065;-65
2022/03/17 00:37:25;;;;;;;15.23;12.38;;;;;;;6.23;85.07;101298.09;4949455;29;20102;-65
2022/03/17 00:40:28;;;;;;;;;;;;;;;6.20;85.25;101305.09;4951471;29;20113;-65
2022/03/17 00:43:34;;;;;;;14.50;13.00;;;;;;;6.24;85.56;101307.56;4951045;29;20375;-65
2022/03/17 00:46:38;;;;;;;13.32;11.90;;;;;;;6.19;85.95;101304.25;4951261;28;20151;-65
2022/03/17 00:49:41;;;;;;;17.92;15.00;;;;;;;6.16;85.82;101293.94;4950898;28;20050;-64
2022/03/17 00:52:44;;;;;;;21.00;15.18;;;;;;;6.24;84.93;101297.19;4950951;28;20046;-64
2022/03/17 00:55:47;;;;;;;;;;;;;;;6.15;85.39;101305.19;4951232;28;20046;-65
2022/03/17 00:58:50;;;;;;;16.45;12.85;;;;;;;6.22;85.34;101311.09;4950603;28;19946;-65
2022/03/17 01:01:54;;;;;;;;;;;;;;;6.36;84.77;101313.41;4951424;28;20674;-64
2022/03/17 01:04:57;;;;;;;13.60;12.25;;;;;;;6.24;84.99;101312.78;4946200;28;19949;-64
2022/03/17 01:08:00;;;;;;;14.93;13.43;;;;;;;6.10;85.69;101317.41;4950770;29;20197;-64
2022/03/17 01:11:05;;;;;;;18.40;14.25;;;;;;;6.03;85.94;101319.28;4950406;28;20085;-64
2022/03/17 01:14:08;;;;;;;16.33;13.10;;;;;;;6.08;85.87;101316.59;4950482;29;20054;-64
2022/03/17 01:17:11;;;;;;;16.73;13.68;;;;;;;6.11;85.83;101316.53;4950652;29;20066;-64
2022/03/17 01:20:15;;;;;;;;;;;;;;;6.02;85.87;101314.13;4951024;29;20476;-64
2022/03/17 01:23:18;;;;;;;14.57;13.05;;;;;;;6.22;85.46;101317.16;4950931;29;19960;-64
2022/03/17 01:26:21;;;;;;;14.82;13.13;;;;;;;6.31;84.40;101323.03;4950807;29;20043;-64
2022/03/17 01:29:26;;;;;;;19.50;13.93;;;;;;;6.15;85.16;101332.88;4956881;28;20137;-64
2022/03/17 01:32:32;;;;;;;14.77;13.23;;;;;;;6.17;84.77;101325.94;4962642;28;20050;-65
2022/03/17 01:35:35;;;;;;;14.65;13.13;;;;;;;6.21;85.50;101324.97;4949455;28;20420;-64
2022/03/17 01:38:39;;;;;;;;;;;;;;;6.13;85.19;101325.16;4950484;28;20078;-64
2022/03/17 01:41:42;;;;;;;16.13;12.55;;;;;;;6.07;85.48;101345.19;4950639;28;20469;-65
2022/03/17 01:44:45;;;;;;;;;;;;;;;5.86;87.31;101339.50;4951140;28;20099;-65
2022/03/17 01:47:48;;;;;;;15.60;13.90;;;;;;;6.06;86.19;101336.53;4973303;28;20410;-64
2022/03/17 01:50:53;;;;;;;;;;;;;;;6.25;85.52;101335.28;4988953;28;20587;-65
2022/03/17 01:53:57;;;;;;;15.98;13.05;;;;;;;6.25;85.31;101332.69;4988740;28;19920;-65
2022/03/17 01:57:00;;;;;;;19.33;17.02;;;;;;;6.16;85.19;101332.88;4988999;28;20049;-65
2022/03/17 02:00:06;;;;;;;18.40;16.38;;;;;;;6.13;85.11;101335.53;4988996;28;20061;-64
2022/03/17 02:03:17;;;;;;;19.55;15.50;;;;;;;6.19;85.20;101331.94;4985915;28;20065;-65
2022/03/17 02:06:20;;;;;;;18.40;16.45;;;;;;;6.15;85.24;101328.53;4989332;28;20053;-64
2022/03/17 02:09:26;;;;;;;;;;;;;;;6.21;85.12;101330.16;4989325;28;20113;-64
2022/03/17 02:15:53;;;;;;;19.70;15.15;;;;;;;6.19;84.77;101335.41;4987987;28;20078;-65
2022/03/17 02:18:59;;;;;;;16.88;14.95;;;;;;;6.02;85.39;101340.06;4988403;28;20540;-64
2022/03/17 02:22:03;;;;;;;14.48;12.85;;;;;;;6.20;85.46;101331.06;4989170;28;20053;-64
2022/03/17 02:28:31;;;;;;;21.98;14.07;;;;;;;6.09;85.60;101318.28;4980231;28;20057;-64
2022/03/17 02:31:37;;;;;;;19.55;15.55;;;;;;;6.07;85.34;101308.84;4953199;29;20050;-64
2022/03/17 02:34:40;;;;;;;16.98;14.57;;;;;;;6.06;85.58;101305.38;4953837;29;20101;-64
2022/03/17 02:37:43;;;;;;;18.13;16.23;;;;;;;5.91;86.14;101292.69;4953683;29;20101;-64
2022/03/17 02:40:51;;;;;;;21.17;14.82;;;;;;;5.88;86.52;101313.53;4963753;28;20053;-64
2022/03/17 02:43:54;;;;;;;17.92;15.30;;;;;;;5.65;87.59;101311.34;4960644;28;20116;-64
2022/03/17 02:46:57;;;;;;;15.95;14.35;;;;;;;5.87;87.28;101306.59;4991534;28;20078;-64
2022/03/17 02:50:00;;;;;;;17.27;13.43;;;;;;;6.00;86.59;101313.31;4991463;28;20092;-65
2022/03/17 02:53:09;;;;;;;16.10;14.48;;;;;;;6.02;85.93;101308.94;4979485;28;20049;-64
2022/03/17 02:56:12;;;;;;;20.92;15.43;;;;;;;6.01;86.31;101299.44;4991865;28;20058;-64
2022/03/17 02:59:15;;;;;;;;;;;;;;;6.05;85.81;101316.66;4979376;28;20525;-65
2022/03/17 03:02:19;;;;;;;18.15;15.10;;;;;;;6.01;85.67;101313.25;4972371;28;20009;-64
2022/03/17 03:05:22;;;;;;;15.68;14.07;;;;;;;6.14;85.51;101311.25;4971907;28;20054;-65
2022/03/17 03:08:27;;;;;;;17.67;14.07;;;;;;;5.97;85.44;101318.56;4971796;28;20061;-64
2022/03/17 03:11:30;;;;;;;17.67;15.38;;;;;;;5.98;85.98;101325.47;4971826;28;20049;-65
2022/03/17 03:14:34;;;;;;;16.25;14.50;;;;;;;5.86;86.92;101320.47;4952151;29;20050;-65
2022/03/17 03:17:37;;;;;;;16.73;15.13;;;;;;;5.89;86.09;101330.81;4952940;29;20106;-64
2022/03/17 03:20:40;;;;;;;;;;;;;;;5.93;85.81;101325.53;4953144;29;20050;-64
2022/03/17 03:23:43;;;;;;;17.17;14.48;;;;;;;5.88;86.29;101329.09;4952406;29;20517;-64
2022/03/17 03:26:46;;;;;;;;;;;;;;;5.76;86.32;101336.22;4959707;28;20049;-65
2022/03/17 03:29:50;;;;;;;20.00;16.13;;;;;;;5.74;86.52;101343.22;4990999;28;19921;-64
2022/03/17 03:32:53;;;;;;;17.45;15.65;;;;;;;5.83;86.30;101347.34;4990302;28;20046;-64
2022/03/17 03:39:19;;;;;;;20.83;15.60;;;;;;;5.79;86.55;101351.75;4990623;28;20448;-65
2022/03/17 03:42:23;;;;;;;;;;;;;;;6.01;86.04;101359.16;4990315;28;20103;-65
2022/03/17 03:45:26;;;;;;;16.65;14.88;;;;;;;5.92;85.82;101357.53;4990608;28;19940;-64
2022/03/17 03:48:31;;;;;;;25.90;17.73;;;;;;;5.93;86.21;101369.66;4991074;28;20194;-64
2022/03/17 03:51:35;;;;;;;20.15;16.92;;;;;;;6.10;85.45;101360.72;4990522;28;20133;-63
2022/03/17 03:54:39;;;;;;;22.17;15.60;;;;;;;6.02;85.50;101366.88;4990560;28;20050;-64
2022/03/17 03:57:42;;;;;;;19.60;15.48;;;;;;;5.91;85.90;101366.22;4951701;29;20110;-64
2022/03/17 04:00:45;;;;;;;23.05;16.88;;;;;;;5.82;86.29;101362.06;4951272;29;20054;-64
2022/03/17 04:03:49;;;;;;;;;;;;;;;5.90;86.05;101368.84;4951869;29;20050;-65
2022/03/17 04:06:59;;;;;;;17.70;14.80;;;;;;;5.94;86.21;101368.81;4952066;29;19922;-64
2022/03/17 04:10:03;;;;;;;17.17;14.30;;;;;;;6.11;85.67;101378.84;4957936;28;20122;-64
2022/03/17 04:13:06;;;;;;;21.27;15.63;;;;;;;5.99;85.47;101373.88;4967376;28;20101;-65
2022/03/17 04:16:09;;;;;;;;;;;;;;;5.95;86.09;101383.47;4970974;28;20057;-64
2022/03/17 04:19:15;;;;;;;17.50;15.73;;;;;;;6.15;85.13;101379.63;4970031;28;19929;-64
2022/03/17 04:22:19;;;;;;;20.10;17.63;;;;;;;5.95;85.92;101388.66;4972899;28;20412;-65
2022/03/17 04:25:22;;;;;;;19.60;17.50;;;;;;;5.83;86.43;101389.72;4969436;28;20528;-64
2022/03/17 04:28:25;;;;;;;;;;;;;;;5.92;86.42;101398.22;4951916;29;20101;-64
2022/03/17 04:31:29;;;;;;;18.42;15.85;;;;;;;5.91;86.29;101397.38;4963058;28;19920;-64
2022/03/17 04:34:32;;;;;;;17.10;14.70;;;;;;;5.99;86.15;101392.91;4970449;28;20105;-64
2022/03/17 04:37:37;;;;;;;19.52;15.90;;;;;;;6.06;85.64;101401.44;4969844;28;20050;-65
2022/03/17 04:40:46;;;;;;;17.08;14.85;;;;;;;5.92;85.79;101406.88;4988361;28;20073;-65
2022/03/17 04:43:50;;;;;;;16.23;14.15;;;;;;;6.03;85.61;101411.88;4989296;28;20699;-65
2022/03/17 04:46:54;;;;;;;17.90;16.05;;;;;;;5.98;85.62;101413.72;4988069;28;20053;-68
2022/03/17 04:49:57;;;;;;;19.67;15.43;;;;;;;6.07;85.54;101416.16;4989528;28;20100;-64
2022/03/17 04:56:24;;;;;;;16.63;14.38;;;;;;;6.07;85.42;101426.53;4968407;28;20016;-65
2022/03/17 04:59:28;;;;;;;21.00;15.63;;;;;;;5.97;85.41;101422.41;4968472;28;20133;-64
2022/03/17 05:02:31;;;;;;;18.17;14.50;;;;;;;5.82;86.52;101432.13;4968674;28;20650;-65
2022/03/17 05:05:35;;;;;;;18.73;16.13;;;;;;;5.73;86.89;101440.09;4968747;28;20053;-64
2022/03/17 05:08:38;;;;;;;;;;;;;;;5.83;86.61;101441.63;4968456;28;20594;-65
2022/03/17 05:11:41;;;;;;;18.05;15.57;;;;;;;5.91;86.23;101443.25;4956094;28;19925;-64
2022/03/17 05:14:45;;;;;;;;;;;;;;;5.79;86.46;101442.56;4958335;28;20680;-65
2022/03/17 05:17:48;;;;;;;16.75;15.00;;;;;;;5.81;86.40;101448.59;4985251;28;20471;-65
2022/03/17 05:20:51;;;;;;;;;;;;;;;5.64;86.85;101455.81;4986370;28;20475;-64
2022/03/17 05:23:54;;;;;;;21.17;16.75;;;;;;;5.67;86.82;101460.09;4967212;28;20451;-65
2022/03/17 05:26:58;;;;;;;20.17;16.23;;;;;;;5.77;86.54;101470.28;4967448;28;20406;-65
2022/03/17 05:30:01;;;;;;;;;;;;;;;5.85;86.34;101469.31;4968092;28;20081;-65
2022/03/17 05:33:06;;;;;;;21.63;19.02;;;;;;;5.81;86.11;101477.16;4967875;28;19921;-65
2022/03/17 05:36:09;;;;;;;52.47;44.17;;;;;;;5.75;85.93;101474.66;4967500;28;20523;-65
2022/03/17 05:39:12;;;;;;;;;;;;;;;5.61;86.60;101481.81;4968890;28;20064;-64
2022/03/17 05:42:15;;;;;;;30.20;19.37;;;;;;;5.55;86.89;101487.09;4949914;29;19921;-64
2022/03/17 05:45:18;;;;;;;23.15;18.77;;;;;;;5.49;87.71;101482.03;4954830;28;20416;-65
2022/03/17 05:48:22;;;;;;;19.77;16.58;;;;;;;5.71;86.58;101488.56;4967511;28;20125;-64
2022/03/17 05:51:25;;;;;;;21.27;18.02;;;;;;;5.86;85.77;101497.81;4955953;28;20548;-63
2022/03/17 05:54:28;;;;;;;;;;;;;;;5.88;85.87;101496.06;4968788;28;20065;-64
2022/03/17 05:57:36;;;;;;;19.65;17.55;;;;;;;5.73;85.88;101502.38;4970153;28;20287;-65
2022/03/17 06:00:39;;;;;;;20.85;18.17;;;;;;;5.68;86.25;101505.91;4971516;28;20050;-65
2022/03/17 06:08:02;;;;;;;21.23;17.25;;;;;;;5.79;86.12;101517.84;4948050;29;20066;-64
2022/03/17 06:11:06;;;;;;;;;;;;;;;5.77;86.50;101527.38;4948775;29;20049;-64
2022/03/17 06:14:10;;;;;;;20.85;18.63;;;;;;;5.88;86.34;101531.56;4948761;29;19927;-64
2022/03/17 06:17:13;;;;;;;22.67;20.17;;;;;;;5.76;86.04;101536.06;4951785;29;20074;-65
2022/03/17 06:20:19;;;;;;;25.65;21.67;;;;;;;5.70;86.86;101543.94;4951625;29;20417;-65
2022/03/17 06:23:22;;;;;;;27.48;21.83;;;;;;;5.81;86.61;101547.22;4952240;29;20046;-64
2022/03/17 06:26:26;;;;;;;27.75;21.70;;;;;;;5.76;86.98;101551.63;4953614;29;20105;-64
2022/03/17 06:29:29;;;;;;;27.20;20.30;;;;;;;5.76;87.05;101554.22;4952473;29;20117;-64
2022/03/17 06:32:39;;;;;;;22.77;18.10;;;;;;;5.79;87.42;101561.94;4966767;28;20085;-65
2022/03/17 06:35:43;;;;;;;21.92;19.40;;;;;;;5.79;87.55;101564.56;4972278;28;20097;-64
2022/03/17 06:38:46;;;;;;;;;;;;;;;5.81;87.78;101562.81;4971075;28;20054;-64
2022/03/17 06:41:50;;;;;;;19.00;17.00;;;;;;;6.00;86.57;101576.38;4971530;28;19920;-64
2022/03/17 06:44:53;;;;;;;21.10;16.10;;;;;;;6.14;86.42;101572.69;4971376;28;20050;-66
2022/03/17 06:47:57;;;;;;;21.52;16.00;;;;;;;6.23;85.89;101580.31;4968513;28;20432;-64
2022/03/17 06:51:00;;;;;;;24.42;18.05;;;;;;;6.17;85.88;101586.47;4989293;28;20100;-65
2022/03/17 06:54:04;;;;;;;;;;;;;;;6.07;86.62;101597.91;4990636;28;20045;-64
2022/03/17 06:57:06;;;;;;;19.00;16.20;;;;;;;6.11;86.86;101601.28;4989493;28;19944;-64
2022/03/17 07:00:13;;;;;;;20.77;17.90;;;;;;;6.12;86.41;101603.84;4989307;28;20046;-64
2022/03/17 07:03:16;;;;;;;18.33;16.45;;;;;;;6.20;86.75;101607.19;4989667;28;20549;-65
2022/03/17 07:06:20;;;;;;;;;;;;;;;6.02;87.75;101597.97;4991076;28;20045;-64
2022/03/17 07:09:24;;;;;;;19.33;16.33;;;;;;;6.17;86.72;101596.84;4989677;28;19968;-64
2022/03/17 07:12:27;;;;;;;;;;;;;;;6.04;87.86;101604.00;4989233;28;20092;-64
2022/03/17 07:15:32;;;;;;;20.20;17.88;;;;;;;6.16;87.13;101607.25;4990331;28;19956;-64
2022/03/17 07:18:35;;;;;;;;;;;;;;;6.26;86.64;101612.28;4990049;28;20049;-64
2022/03/17 07:21:39;;;;;;;19.42;17.00;;;;;;;6.39;86.10;101606.88;4990078;28;19921;-64
2022/03/17 07:24:43;;;;;;;20.35;18.35;;;;;;;6.28;86.29;101614.84;4990492;28;20053;-65
2022/03/17 07:27:48;;;;;;;23.50;18.67;;;;;;;6.22;86.76;101620.13;4989944;28;20052;-64
2022/03/17 07:30:51;;;;;;;22.45;18.80;;;;;;;6.23;86.35;101630.53;4989500;28;20503;-65
2022/03/17 07:33:54;;;;;;;21.90;19.60;;;;;;;6.34;85.85;101652.84;4988834;28;20088;-65
2022/03/17 07:36:58;;;;;;;;;;;;;;;6.43;85.49;101644.91;4989665;28;20099;-64
2022/03/17 07:40:00;;;;;;;30.63;23.58;;;;;;;6.43;85.83;101650.09;4985327;28;19924;-65
2022/03/17 07:43:04;;;;;;;;;;;;;;;6.45;86.29;101658.75;4990350;28;20113;-64
2022/03/17 07:46:07;;;;;;;25.17;21.10;;;;;;;6.51;85.83;101653.44;4988275;28;19960;-64
2022/03/17 07:49:20;;;;;;;21.98;19.50;;;;;;;6.63;85.55;101655.78;4990036;28;20217;-65
2022/03/17 07:52:24;;;;;;;26.63;23.42;;;;;;;6.68;84.72;101661.78;4976869;28;20116;-65
2022/03/17 07:55:27;;;;;;;24.52;22.02;;;;;;;6.71;84.97;101663.47;4988795;28;20411;-65
2022/03/17 07:58:32;;;;;;;22.33;19.92;;;;;;;6.71;84.58;101659.13;4968568;28;20053;-66
2022/03/17 08:01:36;;;;;;;23.60;20.95;;;;;;;6.78;84.53;101666.81;4969382;28;20050;-65
2022/03/17 08:04:40;;;;;;;24.27;20.95;;;;;;;6.70;85.16;101669.53;4969983;28;20126;-65
2022/03/17 08:07:43;;;;;;;22.45;20.15;;;;;;;6.75;85.27;101675.53;4969899;28;20443;-64
2022/03/17 08:10:47;;;;;;;22.27;19.45;;;;;;;6.85;84.90;101681.41;4969432;28;20038;-64
2022/03/17 08:13:50;;;;;;;22.75;19.95;;;;;;;6.72;85.44;101694.63;4969003;28;20050;-65
2022/03/17 08:16:55;;;;;;;28.33;23.00;;;;;;;6.36;87.42;101695.25;4977812;28;20059;-65
2022/03/17 08:19:58;;;;;;;33.88;26.42;;;;;;;6.60;86.25;101700.03;4987684;28;20125;-65
2022/03/17 08:23:01;;;;;;;31.65;28.23;;;;;;;6.74;85.66;101702.41;4988935;28;20048;-64
2022/03/17 08:26:05;;;;;;;32.85;28.05;;;;;;;6.81;85.38;101708.34;4989039;28;20511;-64
2022/03/17 08:29:08;;;;;;;;;;;;;;;6.88;85.24;101720.34;4988891;28;20339;-64
2022/03/17 08:32:11;;;;;;;33.40;29.13;;;;;;;6.86;85.62;101720.41;4988028;28;20143;-65
2022/03/17 08:35:17;;;;;;;33.97;30.10;;;;;;;6.92;85.06;101735.00;4986638;28;20092;-65
2022/03/17 08:38:21;;;;;;;35.85;32.03;;;;;;;6.97;84.86;101735.78;4986268;28;20049;-64
2022/03/17 08:41:24;;;;;;;33.63;29.90;;;;;;;6.98;85.06;101742.69;4984370;28;20130;-64
2022/03/17 08:44:28;;;;;;;39.15;31.40;;;;;;;6.99;85.07;101744.44;4988470;28;20073;-64
2022/03/17 08:50:54;;;;;;;32.50;29.13;;;;;;;7.04;84.99;101760.78;4988720;28;20088;-64
2022/03/17 08:53:57;;;;;;;34.97;31.27;;;;;;;7.05;85.18;101767.75;4988790;28;20052;-65
2022/03/17 08:57:03;;;;;;;34.83;27.85;;;;;;;7.07;85.31;101773.75;4988100;28;20049;-65
2022/03/17 09:00:07;;;;;;;30.25;27.15;;;;;;;7.03;85.88;101772.09;4987339;28;20829;-65
2022/03/17 09:03:11;;;;;;;29.10;25.98;;;;;;;7.10;85.89;101778.03;4976254;28;20097;-65
2022/03/17 09:06:14;;;;;;;27.55;24.75;;;;;;;7.19;85.81;101783.09;4967999;28;20103;-64
2022/03/17 09:09:18;;;;;;;26.50;23.63;;;;;;;7.14;85.53;101783.16;4968382;28;20461;-64
2022/03/17 09:12:21;;;;;;;27.48;24.60;;;;;;;7.20;86.12;101792.59;4968918;28;20053;-64
2022/03/17 09:15:25;;;;;;;27.50;24.48;;;;;;;7.33;85.23;101801.03;4956523;28;20583;-65
2022/03/17 09:18:28;;;;;;;30.27;25.95;;;;;;;7.28;85.50;101808.09;4968561;28;20041;-65
2022/03/17 09:21:32;;;;;;;28.83;25.73;;;;;;;7.24;85.86;101812.47;4968364;28;20098;-65
2022/03/17 09:24:35;;;;;;;28.10;25.40;;;;;;;7.22;86.25;101816.84;4968091;28;20502;-64
2022/03/17 09:27:39;;;;;;;31.40;26.58;;;;;;;7.18;87.09;101821.25;4957407;28;20147;-64
2022/03/17 09:30:42;;;;;;;28.65;25.63;;;;;;;7.23;87.67;101816.81;4968880;28;20480;-64
2022/03/17 09:33:46;;;;;;;33.00;29.58;;;;;;;7.05;88.90;101826.66;4972287;28;20046;-65
2022/03/17 09:36:49;;;;;;;36.60;32.63;;;;;;;7.22;87.74;101832.47;4947119;28;20051;-65
2022/03/17 09:39:52;;;;;;;;;;;;;;;7.22;88.35;101835.06;4955192;29;20050;-65
2022/03/17 09:43:18;;;;;;;34.38;28.48;;;;;;;7.29;88.31;101844.47;4956017;29;19929;-64
2022/03/17 09:46:21;;;;;;;41.42;37.17;;;;;;;7.43;87.73;101844.22;4954526;29;20174;-65
2022/03/17 09:49:25;;;;;;;34.05;30.45;;;;;;;7.44;87.55;101856.34;4974305;28;20062;-65
2022/03/17 09:52:31;;;;;;;37.53;33.72;;;;;;;7.06;90.30;101862.22;4973869;28;20132;-66
2022/03/17 09:55:35;;;;;;;44.63;39.90;;;;;;;7.27;89.85;101871.38;4974827;28;20053;-64
2022/03/17 09:58:39;;;;;;;36.70;32.03;;;;;;;7.41;89.74;101867.69;4974770;28;20057;-64
2022/03/17 10:01:44;;;;;;;39.50;32.13;;;;;;;7.59;89.67;101876.03;4986038;28;20057;-65
2022/03/17 10:04:48;;;;;;;39.13;30.95;;;;;;;7.58;89.84;101887.34;4993720;28;20432;-65
2022/03/17 10:07:51;;;;;;;38.15;31.40;;;;;;;7.65;88.46;101891.53;4993104;28;20049;-65
2022/03/17 10:10:54;;;;;;;39.80;32.65;;;;;;;7.73;88.35;101896.63;4973917;28;20515;-65
2022/03/17 10:13:59;;;;;;;36.88;30.75;;;;;;;7.63;89.53;101906.34;4973926;28;20049;-65
2022/03/17 10:17:07;;;;;;;30.75;23.08;;;;;;;7.68;85.75;101891.47;4974618;28;20463;-65
2022/03/17 10:20:22;;;;;;;25.30;20.55;;;;;;;7.79;85.29;101914.72;4989929;28;20073;-65
2022/03/17 10:23:26;;;;;;;24.60;21.65;;;;;;;7.74;85.17;101916.56;4994232;28;20049;-65
2022/03/17 10:26:32;;;;;;;;;;;;;;;7.82;83.61;101920.75;4995059;28;20045;-65
2022/03/17 10:29:35;;;;;;;19.52;17.40;;;;;;;7.94;84.02;101927.44;4993735;28;20409;-65
2022/03/17 10:32:39;;;;;;;21.05;16.95;;;;;;;7.95;82.56;101925.72;4985648;28;20057;-65
2022/03/17 10:35:46;;;;;;;18.67;15.20;;;;;;;7.95;82.50;101926.56;4993847;28;20049;-65
2022/03/17 10:39:02;;;;;;;20.35;17.08;;;;;;;7.85;81.50;101932.84;4993565;28;20093;-65
2022/03/17 10:42:14;;;;;;;20.13;15.20;;;;;;;7.85;80.44;101935.47;4981779;28;20061;-65
2022/03/17 10:45:17;;;;;;;18.38;15.48;;;;;;;7.97;82.16;101945.63;4977898;28;20045;-65
2022/03/17 10:48:20;;;;;;;;;;;;;;;8.02;81.08;101943.78;4990522;28;20337;-65
2022/03/17 10:51:53;;;;;;;20.70;14.52;;;;;;;8.04;80.53;101949.84;4990135;28;19968;-65
2022/03/17 10:54:56;;;;;;;17.63;14.43;;;;;;;7.88;80.30;101957.09;4990579;28;20049;-65
2022/03/17 10:58:17;;;;;;;17.10;14.13;;;;;;;7.91;79.93;101961.34;4990463;28;20081;-65
2022/03/17 11:01:35;;;;;;;18.42;14.77;;;;;;;8.05;80.41;101976.75;4990926;28;20184;-65
2022/03/17 11:04:43;;;;;;;19.58;15.65;;;;;;;8.11;80.79;101976.63;4990259;28;20041;-65
2022/03/17 11:07:47;;;;;;;19.05;15.23;;;;;;;8.15;81.81;101979.16;4990015;28;20052;-65
2022/03/17 11:10:50;;;;;;;20.15;16.42;;;;;;;8.34;81.02;101977.03;4989561;28;20049;-65
2022/03/17 11:13:53;;;;;;;;;;;;;;;8.48;79.87;101979.41;4990644;28;20563;-65
2022/03/17 11:17:00;;;;;;;19.50;14.60;;;;;;;8.48;76.90;101979.41;4989813;28;19920;-65
2022/03/17 11:20:08;;;;;;;14.88;13.35;;;;;;;8.42;78.12;101982.13;4990339;28;20052;-65
2022/03/17 11:23:19;;;;;;;17.92;13.70;;;;;;;8.43;79.25;101990.81;4990159;28;20515;-65
2022/03/17 11:26:35;;;;;;;15.27;13.68;;;;;;;8.43;78.73;101998.66;4991267;28;20053;-65
2022/03/17 11:29:47;;;;;;;18.25;14.27;;;;;;;8.45;78.58;101994.25;4990101;28;20181;-64
2022/03/17 11:32:55;;;;;;;15.30;13.68;;;;;;;8.59;78.31;102000.91;4990723;28;20112;-65
2022/03/17 11:36:00;;;;;;;15.48;13.50;;;;;;;8.39;78.75;102013.47;4990514;28;20111;-64
2022/03/17 11:39:24;;;;;;;12.65;10.32;;;;;;;8.34;77.14;102023.09;4974846;28;20081;-65
2022/03/17 11:42:52;;;;;;;16.42;9.77;;;;;;;8.19;76.94;102028.59;4971199;28;20046;-65
2022/03/17 11:46:10;;;;;;;11.05;9.40;;;;;;;8.19;77.07;102015.56;4970310;28;20076;-65
2022/03/17 11:49:21;;;;;;;11.95;10.02;;;;;;;8.01;76.32;102030.66;4959964;28;20086;-65
2022/03/17 11:52:25;;;;;;;10.20;8.38;;;;;;;8.33;75.57;102026.59;4971123;28;20098;-65
2022/03/17 11:55:31;;;;;;;;;;;;;;;8.56;74.49;102021.81;4970977;28;20049;-65
2022/03/17 11:58:42;;;;;;;11.05;7.95;;;;;;;8.64;74.38;102033.84;4970515;28;19956;-65
2022/03/17 12:01:47;;;;;;;9.80;7.57;;;;;;;8.50;72.12;102024.56;4944425;29;20121;-65
2022/03/17 12:04:54;;;;;;;9.55;7.05;;;;;;;8.64;72.44;102020.81;4951632;29;20581;-65
2022/03/17 12:08:03;;;;;;;10.40;7.35;;;;;;;8.41;71.27;102021.25;4951343;29;20046;-65
2022/03/17 12:11:13;;;;;;;9.30;6.20;;;;;;;8.65;71.49;102032.94;4951039;29;20441;-65
2022/03/17 12:14:24;;;;;;;9.60;6.88;;;;;;;8.61;71.51;102027.81;4951165;29;20105;-65
2022/03/17 12:17:29;;;;;;;9.90;7.90;;;;;;;8.80;71.96;102032.63;4939186;29;20141;-65
2022/03/17 12:20:45;;;;;;;9.30;6.95;;;;;;;8.93;69.98;102028.88;4950980;29;20039;-65
2022/03/17 12:23:49;;;;;;;12.77;7.95;;;;;;;9.03;69.68;102038.25;4944672;29;20109;-65
2022/03/17 12:27:04;;;;;;;10.68;6.53;;;;;;;8.68;70.02;102043.31;4950990;29;20046;-66
2022/03/17 12:30:11;;;;;;;7.70;5.50;;;;;;;8.68;69.25;102048.53;4950889;29;20118;-65
2022/03/17 12:33:16;;;;;;;7.95;5.18;;;;;;;8.80;69.74;102053.50;4950677;29;20191;-65
2022/03/17 12:36:22;;;;;;;5.80;4.10;;;;;;;8.98;70.58;102065.31;4951011;29;20227;-65
2022/03/17 12:39:28;;;;;;;5.63;3.55;;;;;;;9.15;68.84;102055.38;4950559;29;20050;-67
2022/03/17 12:42:38;;;;;;;6.30;3.10;;;;;;;9.23;69.53;102057.81;4950517;29;20097;-66
2022/03/17 12:45:42;;;;;;;4.28;2.15;;;;;;;9.27;69.31;102056.84;4950084;29;20050;-65
2022/03/17 12:48:46;;;;;;;5.10;2.17;;;;;;;9.08;68.94;102065.06;4950623;28;20070;-65
2022/03/17 12:51:50;;;;;;;5.72;1.92;;;;;;;9.14;68.16;102060.63;4950850;29;20134;-65
2022/03/17 12:54:58;;;;;;;;;;;;;;;9.37;66.67;102055.75;4951247;29;20540;-65
2022/03/17 12:58:02;;;;;;;5.85;2.03;;;;;;;9.17;69.04;102052.75;4949557;29;20105;-64
2022/03/17 13:01:05;;;;;;;6.28;2.20;;;;;;;9.01;70.15;102079.16;4949158;29;20429;-65
2022/03/17 13:04:09;;;;;;;8.98;2.80;;;;;;;8.92;67.70;102070.66;4961537;28;20105;-66
2022/03/17 13:07:14;;;;;;;;;;;;;;;9.08;68.36;102079.88;4965390;28;20094;-65
2022/03/17 13:10:24;;;;;;;5.00;2.22;;;;;;;9.13;67.90;102071.97;4968487;28;19920;-65
2022/03/17 13:17:02;;;;;;;7.53;2.22;;;;;;;9.00;66.96;102072.22;4968927;28;20499;-65
2022/03/17 13:20:25;;;;;;;6.32;1.92;;;;;;;8.91;67.03;102067.19;4971085;28;20053;-65
2022/03/17 13:23:35;;;;;;;7.55;1.85;;;;;;;9.03;67.71;102077.38;4967800;28;20093;-65
2022/03/17 13:26:38;;;;;;;3.65;1.77;;;;;;;9.14;67.12;102071.06;4972492;28;20054;-65
2022/03/17 13:29:53;;;;;;;9.93;5.97;;;;;;;9.28;66.70;102079.44;4971367;28;20264;-65
2022/03/17 13:33:04;;;;;;;5.28;2.60;;;;;;;9.41;66.82;102085.25;4972895;28;20130;-65
2022/03/17 13:36:07;;;;;;;5.38;2.10;;;;;;;9.26;67.48;102091.69;4972894;28;20054;-65
2022/03/17 13:39:11;;;;;;;;;;;;;;;9.13;67.11;102085.88;4973195;28;20155;-65
2022/03/17 13:42:14;;;;;;;8.57;5.13;;;;;;;9.20;67.80;102086.59;4970244;28;19960;-65
2022/03/17 13:45:32;;;;;;;5.95;3.25;;;;;;;9.14;66.59;102094.56;4971615;28;20121;-65
2022/03/17 13:48:36;;;;;;;6.65;2.60;;;;;;;9.10;66.42;102092.91;4970063;28;20089;-65
2022/03/17 13:51:39;;;;;;;7.90;2.90;;;;;;;9.13;67.30;102098.06;4992003;28;20520;-65
2022/03/17 13:54:43;;;;;;;7.40;2.60;;;;;;;9.04;66.40;102088.66;4992082;28;20111;-65
2022/03/17 13:57:46;;;;;;;5.85;2.90;;;;;;;8.85;67.37;102089.03;4991819;28;20097;-65
2022/03/17 14:00:51;;;;;;;5.20;2.30;;;;;;;8.98;67.83;102094.88;4991804;28;20417;-65
2022/03/17 14:04:05;;;;;;;8.05;2.90;;;;;;;8.96;67.77;102101.84;4991861;28;20065;-65
2022/03/17 14:07:08;;;;;;;10.52;3.65;;;;;;;8.82;67.60;102094.31;4991944;28;20112;-65
2022/03/17 14:10:12;;;;;;;7.95;3.80;;;;;;;8.94;67.80;102095.84;4992169;28;20539;-65
2022/03/17 14:13:15;;;;;;;8.68;4.72;;;;;;;8.91;67.72;102100.25;4991582;28;20050;-65
2022/03/17 14:16:21;;;;;;;6.97;4.68;;;;;;;8.93;67.67;102106.28;4991675;28;20543;-65
2022/03/17 14:19:24;;;;;;;7.50;5.30;;;;;;;9.00;67.38;102113.97;4993529;28;20048;-65
2022/03/17 14:25:49;;;;;;;11.75;5.15;;;;;;;8.98;67.15;102130.53;4995471;28;19944;-65
2022/03/17 14:28:53;;;;;;;10.43;6.10;;;;;;;8.90;67.52;102128.06;4995287;28;20105;-65
2022/03/17 14:31:57;;;;;;;13.15;6.22;;;;;;;9.01;67.50;102131.34;4990398;28;20093;-65
2022/03/17 14:35:00;;;;;;;14.20;9.20;;;;;;;8.94;65.42;102137.56;4993989;28;20526;-65
2022/03/17 14:38:03;;;;;;;;;;;;;;;9.07;65.11;102128.59;4994252;28;20325;-65
2022/03/17 14:41:07;;;;;;;14.00;8.37;;;;;;;9.22;65.42;102134.38;4994707;28;19972;-65
2022/03/17 14:44:12;;;;;;;15.07;9.02;;;;;;;9.15;66.56;102138.03;4994811;28;20265;-65
2022/03/17 14:47:15;;;;;;;12.77;8.32;;;;;;;9.29;64.77;102141.22;4995045;28;20479;-65
2022/03/17 14:50:19;;;;;;;9.68;7.65;;;;;;;9.45;65.30;102142.59;4994857;28;20045;-65
2022/03/17 14:53:23;;;;;;;;;;;;;;;9.40;64.49;102148.81;4995313;28;20049;-65
2022/03/17 14:56:26;;;;;;;9.55;7.70;;;;;;;9.59;64.13;102150.13;4991782;28;19937;-65